Terminal Aerodrome Forecast
Issued by NWS Wilmington, OH

Current Version | Previous Version | Graphics & Text | Print | Product List | Glossary On
Versions: 1 2 3 4 5 6 7 8 9 10 11 12 13 14 15 16 17 18 19 20 21 22 23 24 25
000
FTUS41 KILN 250300 AAA
TAFCVG
TAF AMD
KCVG 250329Z 2503/2606 25007KT P6SM SCT120
     FM250600 21005KT P6SM BKN200
     FM251200 18004KT P6SM OVC120
     FM251500 15005KT P6SM SCT040 OVC100
      TEMPO 2517/2519 5SM -RA SCT010 OVC025
     FM251900 12007KT 5SM -RA BR BKN012 OVC025
      TEMPO 2522/2524 3SM -RA OVC008
     FM260000 03007KT 2SM -RA OVC008
      TEMPO 2604/2606 1SM -SNRA OVC006=

USA.gov is the U.S. government's official web portal to all federal, state and local government web resources and services.